createdAt,value
2017-05-19T00:00:52.416Z,0
2017-05-19T00:02:02.709Z,0
2017-05-19T00:03:12.945Z,0
2017-05-19T00:04:22.883Z,0
2017-05-19T00:05:31.594Z,0
2017-05-19T00:06:41.514Z,0
2017-05-19T00:07:50.812Z,0
2017-05-19T00:09:01.060Z,0
2017-05-19T00:10:10.978Z,0
2017-05-19T00:11:20.644Z,0
2017-05-19T00:12:29.930Z,0
2017-05-19T00:13:39.533Z,0
2017-05-19T00:14:49.742Z,0
2017-05-19T00:15:59.639Z,0
2017-05-19T00:17:09.566Z,0
2017-05-19T00:18:19.167Z,0
2017-05-19T00:19:29.087Z,0
2017-05-19T00:20:39.006Z,0
2017-05-19T00:21:48.306Z,0
2017-05-19T00:22:57.609Z,0
2017-05-19T00:24:06.920Z,0
2017-05-19T00:25:17.142Z,0
2017-05-19T00:26:27.045Z,0
2017-05-19T00:27:36.364Z,0
2017-05-19T00:28:46.590Z,0
2017-05-19T00:29:56.822Z,0
2017-05-19T00:31:06.432Z,0
2017-05-19T00:32:16.109Z,0
2017-05-19T00:33:26.337Z,0
2017-05-19T00:34:36.247Z,0
2017-05-19T00:35:46.471Z,0
2017-05-19T00:36:56.092Z,0
2017-05-19T00:38:06.371Z,0
2017-05-19T00:39:15.680Z,0
2017-05-19T00:40:25.603Z,0
2017-05-19T00:41:34.909Z,0
2017-05-19T00:42:44.847Z,0
2017-05-19T00:43:54.767Z,0
2017-05-19T00:45:04.684Z,0
2017-05-19T00:46:14.606Z,0
2017-05-19T00:47:24.825Z,0
2017-05-19T00:48:35.060Z,0
2017-05-19T00:49:44.981Z,0
2017-05-19T00:50:54.908Z,0
2017-05-19T00:52:05.135Z,0
2017-05-19T00:53:15.030Z,0
2017-05-19T00:54:24.328Z,0
2017-05-19T00:55:34.237Z,0
2017-05-19T00:56:44.133Z,0
2017-05-19T00:57:53.449Z,0
2017-05-19T00:59:03.370Z,0
2017-05-19T01:00:12.981Z,0
2017-05-19T01:01:23.189Z,0
2017-05-19T01:02:33.114Z,0
2017-05-19T01:03:43.026Z,0
2017-05-19T01:04:52.626Z,0
2017-05-19T01:06:02.526Z,0
2017-05-19T01:07:11.826Z,0
2017-05-19T01:08:21.122Z,0
2017-05-19T01:09:31.352Z,0
2017-05-19T01:10:41.269Z,0
2017-05-19T01:11:50.869Z,0
2017-05-19T01:13:00.478Z,0
2017-05-19T01:14:10.090Z,0
2017-05-19T01:15:19.687Z,0
2017-05-19T01:16:29.003Z,0
2017-05-19T01:17:39.218Z,0
2017-05-19T01:18:49.128Z,0
2017-05-19T01:19:59.353Z,0
2017-05-19T01:21:08.662Z,0
2017-05-19T01:22:18.883Z,0
2017-05-19T01:23:28.806Z,0
2017-05-19T01:24:38.720Z,0
2017-05-19T01:25:48.030Z,0
2017-05-19T01:26:58.252Z,0
2017-05-19T01:28:08.162Z,0
2017-05-19T01:29:17.458Z,0
2017-05-19T01:30:27.364Z,0
2017-05-19T01:31:37.275Z,0
2017-05-19T01:32:47.184Z,0
2017-05-19T01:33:57.102Z,0
2017-05-19T01:35:06.723Z,0
2017-05-19T01:36:16.965Z,0
2017-05-19T01:37:27.180Z,0
2017-05-19T01:38:37.391Z,0
2017-05-19T01:39:47.005Z,0
2017-05-19T01:40:56.605Z,0
2017-05-19T01:42:06.219Z,0
2017-05-19T01:43:16.441Z,0
2017-05-19T01:44:26.361Z,0
2017-05-19T01:45:36.279Z,0
2017-05-19T01:46:45.570Z,0
2017-05-19T01:47:55.483Z,0
2017-05-19T01:49:05.445Z,0
2017-05-19T01:50:15.692Z,0
2017-05-19T01:51:25.919Z,0
2017-05-19T01:52:36.143Z,0
2017-05-19T01:53:46.372Z,0
2017-05-19T01:54:55.995Z,0
2017-05-19T01:56:05.617Z,0
2017-05-19T01:57:15.224Z,0
2017-05-19T01:58:24.515Z,0
2017-05-19T01:59:34.435Z,0
2017-05-19T02:00:44.346Z,0
2017-05-19T02:01:54.269Z,0
2017-05-19T02:03:03.872Z,0
2017-05-19T02:04:14.088Z,0
2017-05-19T02:05:23.686Z,0
2017-05-19T02:06:33.910Z,0
2017-05-19T02:07:43.886Z,0
2017-05-19T02:08:54.110Z,0
2017-05-19T02:10:04.022Z,0
2017-05-19T02:11:13.929Z,0
2017-05-19T02:12:23.851Z,0
2017-05-19T02:13:34.079Z,0
2017-05-19T02:14:43.985Z,0
2017-05-19T02:15:53.894Z,0
2017-05-19T02:17:03.815Z,0
2017-05-19T02:18:13.775Z,0
2017-05-19T02:19:23.375Z,0
2017-05-19T02:20:33.301Z,0
2017-05-19T02:21:43.519Z,0
2017-05-19T02:22:53.723Z,0
2017-05-19T02:24:03.330Z,0
2017-05-19T02:25:12.624Z,0
2017-05-19T02:26:21.936Z,0
2017-05-19T02:27:31.538Z,0
2017-05-19T02:28:41.754Z,0
2017-05-19T02:29:51.359Z,0
2017-05-19T02:31:01.642Z,0
2017-05-19T02:32:11.235Z,0
2017-05-19T02:33:20.837Z,0
2017-05-19T02:34:30.437Z,0
2017-05-19T02:35:40.345Z,0
2017-05-19T02:36:49.657Z,0
2017-05-19T02:37:59.587Z,0
2017-05-19T02:39:09.497Z,0
2017-05-19T02:40:19.101Z,0
2017-05-19T02:41:29.330Z,0
2017-05-19T02:42:39.235Z,0
2017-05-19T02:43:48.831Z,0
2017-05-19T02:44:58.737Z,0
2017-05-19T02:46:08.659Z,0
2017-05-19T02:47:17.645Z,0
2017-05-19T02:48:27.867Z,0
2017-05-19T02:49:37.778Z,0
2017-05-19T02:50:47.702Z,0
2017-05-19T02:51:58.021Z,0
2017-05-19T02:53:07.939Z,0
2017-05-19T02:54:18.169Z,0
2017-05-19T02:55:27.779Z,0
2017-05-19T02:56:37.686Z,0
2017-05-19T02:57:47.611Z,0
2017-05-19T02:58:57.828Z,0
2017-05-19T03:00:07.738Z,0
2017-05-19T03:01:17.361Z,0
2017-05-19T03:02:27.603Z,0
2017-05-19T03:03:37.827Z,0
2017-05-19T03:04:47.125Z,0
2017-05-19T03:05:56.736Z,0
2017-05-19T03:07:06.943Z,0
2017-05-19T03:08:17.169Z,0
2017-05-19T03:09:27.079Z,0
2017-05-19T03:10:36.376Z,0
2017-05-19T03:11:45.984Z,0
2017-05-19T03:12:55.918Z,0
2017-05-19T03:14:05.526Z,0
2017-05-19T03:15:15.128Z,0
2017-05-19T03:16:24.768Z,0
2017-05-19T03:17:34.070Z,0
2017-05-19T03:18:43.994Z,0
2017-05-19T03:19:54.223Z,0
2017-05-19T03:21:04.457Z,0
2017-05-19T03:22:14.057Z,0
2017-05-19T03:23:24.276Z,0
2017-05-19T03:24:34.186Z,0
2017-05-19T03:25:44.100Z,0
2017-05-19T03:26:54.300Z,0
2017-05-19T03:28:04.235Z,0
2017-05-19T03:29:14.153Z,0
2017-05-19T03:30:23.455Z,0
2017-05-19T03:31:33.669Z,0
2017-05-19T03:32:43.587Z,0
2017-05-19T03:33:53.793Z,0
2017-05-19T03:35:03.703Z,0
2017-05-19T03:36:13.606Z,0
2017-05-19T03:37:23.819Z,0
2017-05-19T03:38:34.055Z,0
2017-05-19T03:39:43.971Z,0
2017-05-19T03:40:53.932Z,0
2017-05-19T03:42:03.614Z,0
2017-05-19T03:43:13.229Z,0
2017-05-19T03:44:23.532Z,0
2017-05-19T03:45:33.746Z,0
2017-05-19T03:46:43.425Z,0
2017-05-19T03:47:53.033Z,0
2017-05-19T03:49:02.987Z,0
2017-05-19T03:50:11.973Z,0
2017-05-19T03:51:22.201Z,0
2017-05-19T03:52:32.117Z,0
2017-05-19T03:53:41.800Z,0
2017-05-19T03:54:51.776Z,0
2017-05-19T03:56:01.684Z,0
2017-05-19T03:57:11.900Z,0
2017-05-19T03:58:22.108Z,0
2017-05-19T03:59:31.719Z,0
2017-05-19T04:00:41.626Z,0
2017-05-19T04:01:51.222Z,0
2017-05-19T04:03:00.533Z,0
2017-05-19T04:04:10.145Z,0
2017-05-19T04:05:19.744Z,0
2017-05-19T04:06:29.656Z,0
2017-05-19T04:07:39.268Z,0
2017-05-19T04:08:49.492Z,0
2017-05-19T04:09:59.401Z,0
2017-05-19T04:11:09.318Z,0
2017-05-19T04:12:18.665Z,0
2017-05-19T04:13:28.587Z,0
2017-05-19T04:14:38.881Z,0
2017-05-19T04:15:48.790Z,0
2017-05-19T04:16:59.002Z,0
2017-05-19T04:18:08.924Z,0
2017-05-19T04:19:18.535Z,0
2017-05-19T04:20:27.838Z,0
2017-05-19T04:21:37.463Z,0
2017-05-19T04:22:47.679Z,0
2017-05-19T04:23:57.609Z,0
2017-05-19T04:25:07.218Z,0
2017-05-19T04:26:16.533Z,0
2017-05-19T04:27:26.789Z,0
2017-05-19T04:28:36.724Z,0
2017-05-19T04:29:46.360Z,0
2017-05-19T04:30:56.298Z,0
2017-05-19T04:32:06.533Z,0
2017-05-19T04:33:16.488Z,0
2017-05-19T04:34:26.122Z,0
2017-05-19T04:35:35.735Z,0
2017-05-19T04:36:45.662Z,0
2017-05-19T04:37:55.276Z,0
2017-05-19T04:39:05.534Z,0
2017-05-19T04:40:15.467Z,0
2017-05-19T04:41:25.059Z,0
2017-05-19T04:42:34.971Z,0
2017-05-19T04:43:44.608Z,5
2017-05-19T04:44:54.229Z,5
2017-05-19T04:46:04.479Z,5
2017-05-19T04:47:14.401Z,5
2017-05-19T04:48:24.023Z,5
2017-05-19T04:49:33.933Z,5
2017-05-19T04:50:44.183Z,5
2017-05-19T04:51:54.108Z,5
2017-05-19T04:53:04.704Z,5
2017-05-19T04:54:14.607Z,5
2017-05-19T04:55:24.539Z,5
2017-05-19T04:56:34.454Z,5
2017-05-19T04:57:44.378Z,5
2017-05-19T04:58:54.352Z,5
2017-05-19T05:00:03.984Z,0
2017-05-19T05:01:14.228Z,0
2017-05-19T05:02:23.549Z,0
2017-05-19T05:03:33.477Z,0
2017-05-19T05:04:43.701Z,0
2017-05-19T05:05:53.623Z,0
2017-05-19T05:07:03.571Z,0
2017-05-19T05:08:13.185Z,0
2017-05-19T05:09:23.152Z,0
2017-05-19T05:10:33.069Z,0
2017-05-19T05:11:43.159Z,0
2017-05-19T05:12:52.786Z,0
2017-05-19T05:14:02.443Z,0
2017-05-19T05:15:12.689Z,0
2017-05-19T05:16:22.615Z,0
2017-05-19T05:17:32.042Z,0
2017-05-19T05:18:43.586Z,0
2017-05-19T05:19:53.838Z,0
2017-05-19T05:21:03.453Z,0
2017-05-19T05:22:13.374Z,0
2017-05-19T05:23:23.290Z,0
2017-05-19T05:24:33.537Z,0
2017-05-19T05:25:43.754Z,5
2017-05-19T05:26:53.756Z,5
2017-05-19T05:28:03.682Z,5
2017-05-19T05:29:13.911Z,5
2017-05-19T05:30:23.525Z,5
2017-05-19T05:31:33.212Z,5
2017-05-19T05:32:43.480Z,5
2017-05-19T05:33:53.405Z,5
2017-05-19T05:35:03.324Z,5
2017-05-19T05:36:13.244Z,5
2017-05-19T05:37:23.159Z,5
2017-05-19T05:38:33.388Z,5
2017-05-19T05:39:43.602Z,5
2017-05-19T05:40:53.850Z,5
2017-05-19T05:42:03.220Z,5
2017-05-19T05:43:13.140Z,5
2017-05-19T05:44:22.770Z,5
2017-05-19T05:45:32.975Z,5
2017-05-19T05:46:43.208Z,5
2017-05-19T05:47:52.831Z,5
2017-05-19T05:49:03.063Z,5
2017-05-19T05:50:12.644Z,5
2017-05-19T05:51:22.559Z,10
2017-05-19T05:52:32.168Z,10
2017-05-19T05:53:41.787Z,10
2017-05-19T05:54:51.701Z,10
2017-05-19T05:56:01.606Z,10
2017-05-19T05:57:11.233Z,10
2017-05-19T05:58:20.842Z,10
2017-05-19T05:59:31.056Z,5
2017-05-19T06:00:40.672Z,5
2017-05-19T06:01:50.888Z,10
2017-05-19T06:03:00.500Z,10
2017-05-19T06:04:10.143Z,10
2017-05-19T06:05:20.052Z,15
2017-05-19T06:06:30.282Z,15
2017-05-19T06:07:40.219Z,15
2017-05-19T06:08:50.118Z,10
2017-05-19T06:09:59.726Z,10
2017-05-19T06:11:09.336Z,15
2017-05-19T06:12:19.279Z,15
2017-05-19T06:13:28.570Z,20
2017-05-19T06:14:38.178Z,15
2017-05-19T06:15:48.084Z,15
2017-05-19T06:16:57.983Z,10
2017-05-19T06:18:07.890Z,15
2017-05-19T06:19:17.860Z,10
2017-05-19T06:20:27.466Z,10
2017-05-19T06:21:37.401Z,10
2017-05-19T06:22:47.314Z,15
2017-05-19T06:23:57.227Z,15
2017-05-19T06:25:07.147Z,20
2017-05-19T06:26:16.451Z,20
2017-05-19T06:27:26.054Z,15
2017-05-19T06:28:35.734Z,15
2017-05-19T06:29:45.656Z,15
2017-05-19T06:30:55.264Z,15
2017-05-19T06:32:05.185Z,15
2017-05-19T06:33:15.412Z,15
2017-05-19T06:34:24.716Z,10
2017-05-19T06:35:34.346Z,10
2017-05-19T06:36:44.279Z,10
2017-05-19T06:37:54.199Z,10
2017-05-19T06:39:04.129Z,10
2017-05-19T06:40:13.737Z,10
2017-05-19T06:41:23.967Z,10
2017-05-19T06:42:33.002Z,10
2017-05-19T06:43:43.245Z,10
2017-05-19T06:44:53.167Z,5
2017-05-19T06:46:02.776Z,5
2017-05-19T06:47:12.997Z,5
2017-05-19T06:48:22.910Z,10
2017-05-19T06:49:32.838Z,10
2017-05-19T06:50:43.067Z,10
2017-05-19T06:51:52.991Z,10
2017-05-19T06:53:03.025Z,10
2017-05-19T06:54:12.328Z,10
2017-05-19T06:55:22.609Z,10
2017-05-19T06:56:32.522Z,10
2017-05-19T06:57:41.826Z,10
2017-05-19T06:58:51.766Z,10
2017-05-19T07:00:01.696Z,10
2017-05-19T07:01:11.317Z,15
2017-05-19T07:02:21.249Z,15
2017-05-19T07:03:30.911Z,10
2017-05-19T07:04:40.855Z,15
2017-05-19T07:05:51.086Z,15
2017-05-19T07:07:00.690Z,15
2017-05-19T07:08:10.613Z,15
2017-05-19T07:09:20.549Z,15
2017-05-19T07:10:30.792Z,15
2017-05-19T07:11:40.400Z,15
2017-05-19T07:12:50.010Z,10
2017-05-19T07:13:59.662Z,10
2017-05-19T07:15:08.988Z,10
2017-05-19T07:16:18.902Z,10
2017-05-19T07:17:28.812Z,15
2017-05-19T07:18:38.411Z,15
2017-05-19T07:19:48.660Z,10
2017-05-19T07:20:58.328Z,10
2017-05-19T07:22:07.953Z,15
2017-05-19T07:23:17.889Z,15
2017-05-19T07:24:28.132Z,15
2017-05-19T07:25:38.378Z,15
2017-05-19T07:26:48.616Z,15
2017-05-19T07:27:58.550Z,15
2017-05-19T07:29:08.797Z,15
2017-05-19T07:30:18.422Z,15
2017-05-19T07:31:28.341Z,15
2017-05-19T07:32:37.351Z,15
2017-05-19T07:33:47.571Z,15
2017-05-19T07:34:57.822Z,20
2017-05-19T07:36:07.432Z,20
2017-05-19T07:37:16.739Z,20
2017-05-19T07:38:26.668Z,20
2017-05-19T07:39:36.894Z,20
2017-05-19T07:40:47.129Z,20
2017-05-19T07:41:56.780Z,20
2017-05-19T07:43:06.708Z,20
2017-05-19T07:44:16.327Z,20
2017-05-19T07:45:25.961Z,20
2017-05-19T07:46:34.960Z,20
2017-05-19T07:47:44.571Z,20
2017-05-19T07:48:54.800Z,20
2017-05-19T07:50:04.719Z,20
2017-05-19T07:51:14.956Z,20
2017-05-19T07:52:24.561Z,20
2017-05-19T07:53:33.896Z,20
2017-05-19T07:54:43.820Z,20
2017-05-19T07:55:53.740Z,20
2017-05-19T07:57:03.661Z,20
2017-05-19T07:58:13.591Z,20
2017-05-19T07:59:23.723Z,20
2017-05-19T08:00:33.348Z,20
2017-05-19T08:01:42.970Z,20
2017-05-19T08:02:52.281Z,20
2017-05-19T08:04:02.501Z,20
2017-05-19T08:05:11.820Z,20
2017-05-19T08:06:21.908Z,20
2017-05-19T08:07:32.132Z,20
2017-05-19T08:08:42.371Z,20
2017-05-19T08:09:51.996Z,20
2017-05-19T08:11:02.239Z,20
2017-05-19T08:12:11.593Z,20
2017-05-19T08:13:21.225Z,20
2017-05-19T08:14:31.444Z,20
2017-05-19T08:15:41.058Z,20
2017-05-19T08:16:51.087Z,20
2017-05-19T08:18:01.007Z,20
2017-05-19T08:19:11.175Z,20
2017-05-19T08:20:21.418Z,20
2017-05-19T08:21:31.376Z,20
2017-05-19T08:22:41.315Z,20
2017-05-19T08:23:51.584Z,20
2017-05-19T08:25:01.205Z,20
2017-05-19T08:26:10.811Z,20
2017-05-19T08:27:20.424Z,20
2017-05-19T08:28:30.650Z,20
2017-05-19T08:29:40.623Z,20
2017-05-19T08:30:50.844Z,25
2017-05-19T08:32:01.077Z,25
2017-05-19T08:33:10.369Z,25
2017-05-19T08:34:19.676Z,25
2017-05-19T08:35:29.904Z,25
2017-05-19T08:36:39.885Z,25
2017-05-19T08:37:49.799Z,25
2017-05-19T08:39:00.031Z,25
2017-05-19T08:40:09.643Z,25
2017-05-19T08:41:19.560Z,30
2017-05-19T08:42:29.789Z,30
2017-05-19T08:43:39.410Z,30
2017-05-19T08:44:48.724Z,30
2017-05-19T08:45:58.970Z,30
2017-05-19T08:47:08.900Z,30
2017-05-19T08:48:18.820Z,30
2017-05-19T08:49:28.729Z,35
2017-05-19T08:50:38.337Z,35
2017-05-19T08:51:48.573Z,30
2017-05-19T08:52:58.809Z,35
2017-05-19T08:54:08.419Z,35
2017-05-19T08:55:18.356Z,35
2017-05-19T08:56:28.346Z,35
2017-05-19T08:57:38.308Z,40
2017-05-19T08:58:48.555Z,40
2017-05-19T09:00:17.685Z,35
2017-05-19T09:01:27.007Z,35
2017-05-19T09:02:36.622Z,35
2017-05-19T09:03:46.553Z,40
2017-05-19T09:04:56.787Z,40
2017-05-19T09:06:06.709Z,40
2017-05-19T09:07:16.354Z,40
2017-05-19T09:08:26.307Z,45
2017-05-19T09:09:36.576Z,45
2017-05-19T09:10:46.509Z,45
2017-05-19T09:11:56.425Z,45
2017-05-19T09:13:06.382Z,45
2017-05-19T09:14:16.306Z,45
2017-05-19T09:15:25.935Z,45
2017-05-19T09:16:35.562Z,45
2017-05-19T09:17:45.490Z,50
2017-05-19T09:18:55.430Z,60
2017-05-19T09:20:05.048Z,55
2017-05-19T09:21:14.974Z,60
2017-05-19T09:22:24.903Z,60
2017-05-19T09:23:34.542Z,60
2017-05-19T09:24:44.219Z,55
2017-05-19T09:25:54.134Z,55
2017-05-19T09:27:03.746Z,55
2017-05-19T09:28:14.014Z,50
2017-05-19T09:29:24.356Z,45
2017-05-19T09:30:34.029Z,45
2017-05-19T09:31:43.646Z,45
2017-05-19T09:32:53.578Z,45
2017-05-19T09:34:03.329Z,40
2017-05-19T09:35:12.049Z,40
2017-05-19T09:36:21.456Z,40
2017-05-19T09:37:31.412Z,40
2017-05-19T09:38:41.325Z,40
2017-05-19T09:39:51.248Z,40
2017-05-19T09:41:00.848Z,40
2017-05-19T09:42:10.454Z,35
2017-05-19T09:43:20.388Z,35
2017-05-19T09:44:30.309Z,40
2017-05-19T09:45:40.551Z,40
2017-05-19T09:46:50.462Z,45
2017-05-19T09:48:00.096Z,45
2017-05-19T09:49:10.029Z,45
2017-05-19T09:50:19.334Z,45
2017-05-19T09:51:29.337Z,50
2017-05-19T09:52:39.601Z,50
2017-05-19T09:53:49.536Z,55
2017-05-19T09:54:59.947Z,60
2017-05-19T09:56:09.585Z,60
2017-05-19T09:57:19.813Z,50
2017-05-19T09:58:29.753Z,45
2017-05-19T09:59:40.363Z,45
2017-05-19T10:00:50.609Z,40
2017-05-19T10:02:00.533Z,35
2017-05-19T10:03:10.466Z,35
2017-05-19T10:04:20.396Z,45
2017-05-19T10:05:30.331Z,50
2017-05-19T10:06:39.973Z,55
2017-05-19T10:07:49.888Z,60
2017-05-19T10:09:00.131Z,65
2017-05-19T10:10:09.766Z,65
2017-05-19T10:11:19.389Z,65
2017-05-19T10:12:29.311Z,60
2017-05-19T10:13:39.309Z,60
2017-05-19T10:14:48.615Z,60
2017-05-19T10:15:58.536Z,60
2017-05-19T10:17:08.473Z,65
2017-05-19T10:18:18.393Z,70
2017-05-19T10:19:28.319Z,70
2017-05-19T10:20:37.636Z,70
2017-05-19T10:21:47.859Z,65
2017-05-19T10:22:57.797Z,65
2017-05-19T10:24:07.757Z,65
2017-05-19T10:25:17.055Z,60
2017-05-19T10:26:26.368Z,60
2017-05-19T10:27:35.684Z,55
2017-05-19T10:28:45.908Z,55
2017-05-19T10:29:54.902Z,50
2017-05-19T10:31:04.819Z,45
2017-05-19T10:32:15.048Z,35
2017-05-19T10:33:24.964Z,35
2017-05-19T10:34:34.576Z,30
2017-05-19T10:35:44.200Z,40
2017-05-19T10:36:54.458Z,40
2017-05-19T10:38:04.079Z,35
2017-05-19T10:39:13.698Z,40
2017-05-19T10:40:22.717Z,40
2017-05-19T10:41:32.026Z,35
2017-05-19T10:42:41.934Z,35
2017-05-19T10:43:51.861Z,35
2017-05-19T10:45:01.792Z,40
2017-05-19T10:46:11.108Z,40
2017-05-19T10:47:21.051Z,40
2017-05-19T10:48:30.653Z,30
2017-05-19T10:49:40.595Z,35
2017-05-19T10:50:50.851Z,40
2017-05-19T10:52:01.082Z,40
2017-05-19T10:53:11.007Z,40
2017-05-19T10:54:20.937Z,40
2017-05-19T10:55:30.237Z,45
2017-05-19T10:56:40.155Z,50
2017-05-19T10:57:50.067Z,45
2017-05-19T10:58:59.987Z,30
2017-05-19T11:00:09.925Z,40
2017-05-19T11:01:19.859Z,40
2017-05-19T11:02:30.160Z,35
2017-05-19T11:03:40.394Z,35
2017-05-19T11:04:50.319Z,30
2017-05-19T11:05:59.928Z,30
2017-05-19T11:07:09.560Z,30
2017-05-19T11:08:19.474Z,40
2017-05-19T11:09:29.391Z,35
2017-05-19T11:10:39.303Z,35
2017-05-19T11:11:49.406Z,30
2017-05-19T11:12:59.339Z,30
2017-05-19T11:14:09.571Z,35
2017-05-19T11:15:18.914Z,45
2017-05-19T11:16:28.228Z,45
2017-05-19T11:17:38.478Z,40
2017-05-19T11:18:48.707Z,50
2017-05-19T11:19:58.313Z,55
2017-05-19T11:21:07.620Z,60
2017-05-19T11:22:16.924Z,55
2017-05-19T11:23:26.864Z,50
2017-05-19T11:24:37.153Z,35
2017-05-19T11:25:46.771Z,35
2017-05-19T11:26:56.725Z,35
2017-05-19T11:28:06.356Z,35
2017-05-19T11:29:16.577Z,35
2017-05-19T11:30:26.200Z,50
2017-05-19T11:31:36.432Z,50
2017-05-19T11:32:46.674Z,45
2017-05-19T11:33:56.593Z,40
2017-05-19T11:35:05.607Z,35
2017-05-19T11:36:15.228Z,25
2017-05-19T11:37:25.496Z,30
2017-05-19T11:38:35.122Z,40
2017-05-19T11:39:44.742Z,40
2017-05-19T11:40:54.701Z,35
2017-05-19T11:42:04.979Z,35
2017-05-19T11:43:15.245Z,20
2017-05-19T11:44:25.493Z,25
2017-05-19T11:45:35.166Z,25
2017-05-19T11:46:45.133Z,35
2017-05-19T11:47:55.403Z,40
2017-05-19T11:49:05.372Z,40
2017-05-19T11:50:15.652Z,40
2017-05-19T11:51:25.315Z,40
2017-05-19T11:52:35.294Z,40
2017-05-19T11:53:44.945Z,40
2017-05-19T11:54:55.214Z,35
2017-05-19T11:56:05.168Z,35
2017-05-19T11:57:14.857Z,35
2017-05-19T11:58:24.820Z,35
2017-05-19T11:59:34.786Z,30
2017-05-19T12:00:44.770Z,30
2017-05-19T12:01:54.743Z,30
2017-05-19T12:03:04.750Z,30
2017-05-19T12:04:15.010Z,35
2017-05-19T12:05:25.276Z,35
2017-05-19T12:06:35.534Z,35
2017-05-19T12:07:45.181Z,30
2017-05-19T12:08:55.138Z,30
2017-05-19T12:10:05.116Z,30
2017-05-19T12:11:14.783Z,30
2017-05-19T12:12:24.464Z,30
2017-05-19T12:13:34.158Z,25
2017-05-19T12:14:44.405Z,25
2017-05-19T12:15:54.670Z,30
2017-05-19T12:17:04.326Z,30
2017-05-19T12:18:14.571Z,30
2017-05-19T12:19:24.509Z,25
2017-05-19T12:20:33.825Z,25
2017-05-19T12:21:43.765Z,30
2017-05-19T12:22:53.733Z,30
2017-05-19T12:24:03.365Z,30
2017-05-19T12:25:13.328Z,30
2017-05-19T12:26:22.957Z,35
2017-05-19T12:27:32.916Z,35
2017-05-19T12:28:42.563Z,35
2017-05-19T12:29:51.901Z,35
2017-05-19T12:31:01.539Z,35
2017-05-19T12:32:10.860Z,35
2017-05-19T12:33:21.111Z,35
2017-05-19T12:34:31.360Z,35
2017-05-19T12:35:41.298Z,40
2017-05-19T12:36:50.648Z,40
2017-05-19T12:38:00.902Z,40
2017-05-19T12:39:10.843Z,40
2017-05-19T12:40:20.165Z,40
2017-05-19T12:41:29.813Z,40
2017-05-19T12:42:39.757Z,40
2017-05-19T12:43:49.063Z,40
2017-05-19T12:44:58.677Z,40
2017-05-19T12:46:08.608Z,40
2017-05-19T12:47:18.834Z,40
2017-05-19T12:48:28.743Z,40
2017-05-19T12:49:38.967Z,40
2017-05-19T12:50:48.900Z,40
2017-05-19T12:51:59.198Z,40
2017-05-19T12:53:09.115Z,40
2017-05-19T12:54:19.062Z,40
2017-05-19T12:55:28.663Z,40
2017-05-19T12:56:38.607Z,40
2017-05-19T12:57:47.912Z,40
2017-05-19T12:58:57.519Z,40
2017-05-19T13:00:06.832Z,40
2017-05-19T13:01:16.970Z,40
2017-05-19T13:02:26.919Z,40
2017-05-19T13:03:36.647Z,40
2017-05-19T13:04:46.331Z,45
2017-05-19T13:05:55.950Z,45
2017-05-19T13:07:06.349Z,45
2017-05-19T13:08:16.533Z,45
2017-05-19T13:09:26.467Z,45
2017-05-19T13:10:36.106Z,45
2017-05-19T13:11:46.020Z,45
2017-05-19T13:12:55.341Z,45
2017-05-19T13:14:05.556Z,45
2017-05-19T13:15:15.836Z,50
2017-05-19T13:16:25.754Z,50
2017-05-19T13:17:35.079Z,50
2017-05-19T13:18:45.019Z,50
2017-05-19T13:19:55.247Z,50
2017-05-19T13:21:04.857Z,50
2017-05-19T13:22:15.107Z,55
2017-05-19T13:23:24.721Z,55
2017-05-19T13:24:34.659Z,55
2017-05-19T13:25:44.882Z,55
2017-05-19T13:26:54.514Z,50
2017-05-19T13:28:04.759Z,50
2017-05-19T13:29:14.703Z,45
2017-05-19T13:30:24.947Z,30
2017-05-19T13:31:34.869Z,25
2017-05-19T13:32:45.104Z,25
2017-05-19T13:33:55.341Z,20
2017-05-19T13:35:05.279Z,15
2017-05-19T13:36:15.573Z,10
2017-05-19T13:37:25.270Z,5
2017-05-19T13:38:34.280Z,5
2017-05-19T13:39:43.898Z,5
2017-05-19T13:40:53.195Z,10
2017-05-19T13:42:03.454Z,15
2017-05-19T13:43:13.716Z,10
2017-05-19T13:44:23.649Z,10
2017-05-19T13:45:33.921Z,15
2017-05-19T13:46:43.868Z,15
2017-05-19T13:47:53.799Z,15
2017-05-19T13:49:03.735Z,15
2017-05-19T13:50:13.037Z,10
2017-05-19T13:51:22.651Z,10
2017-05-19T13:52:32.288Z,15
2017-05-19T13:53:42.223Z,15
2017-05-19T13:54:51.858Z,15
2017-05-19T13:56:01.793Z,15
2017-05-19T13:57:12.026Z,15
2017-05-19T13:58:21.965Z,15
2017-05-19T13:59:31.564Z,10
2017-05-19T14:00:41.801Z,15
2017-05-19T14:01:51.744Z,15
2017-05-19T14:03:01.662Z,20
2017-05-19T14:04:10.982Z,25
2017-05-19T14:05:20.290Z,25
2017-05-19T14:06:29.917Z,30
2017-05-19T14:07:40.214Z,30
2017-05-19T14:08:50.149Z,30
2017-05-19T14:09:59.775Z,25
2017-05-19T14:11:09.998Z,25
2017-05-19T14:12:20.240Z,25
2017-05-19T14:13:30.183Z,25
2017-05-19T14:14:39.865Z,25
2017-05-19T14:15:49.786Z,20
2017-05-19T14:16:59.398Z,20
2017-05-19T14:18:09.335Z,20
2017-05-19T14:19:19.257Z,20
2017-05-19T14:20:29.508Z,20
2017-05-19T14:21:39.729Z,20
2017-05-19T14:22:49.641Z,25
2017-05-19T14:23:59.261Z,30
2017-05-19T14:25:09.515Z,35
2017-05-19T14:26:18.867Z,35
2017-05-19T14:27:28.524Z,35
2017-05-19T14:28:38.436Z,40
2017-05-19T14:29:48.094Z,40
2017-05-19T14:30:57.700Z,40
2017-05-19T14:32:07.320Z,35
2017-05-19T14:33:17.575Z,30
2017-05-19T14:34:27.208Z,30
2017-05-19T14:35:36.898Z,30
2017-05-19T14:36:46.834Z,25
2017-05-19T14:37:56.796Z,25
2017-05-19T14:39:06.413Z,25
2017-05-19T14:40:16.361Z,25
2017-05-19T14:41:25.983Z,25
2017-05-19T14:42:36.268Z,25
2017-05-19T14:43:46.549Z,25
2017-05-19T14:44:56.502Z,25
2017-05-19T14:46:05.874Z,30
2017-05-19T14:47:15.971Z,35
2017-05-19T14:48:25.918Z,45
2017-05-19T14:49:36.171Z,50
2017-05-19T14:50:46.185Z,50
2017-05-19T14:51:56.117Z,50
2017-05-19T14:53:06.385Z,50
2017-05-19T14:54:16.634Z,50
2017-05-19T14:55:26.258Z,50
2017-05-19T14:56:35.872Z,50
2017-05-19T14:57:46.095Z,50
2017-05-19T14:58:56.041Z,50
2017-05-19T15:00:05.367Z,45
2017-05-19T15:01:15.301Z,40
2017-05-19T15:02:25.606Z,35
2017-05-19T15:03:35.528Z,35
2017-05-19T15:04:45.162Z,35
2017-05-19T15:05:55.084Z,40
2017-05-19T15:07:05.012Z,35
2017-05-19T15:08:14.960Z,35
2017-05-19T15:09:25.189Z,35
2017-05-19T15:10:34.521Z,35
2017-05-19T15:11:44.456Z,35
2017-05-19T15:12:54.373Z,35
2017-05-19T15:14:03.998Z,35
2017-05-19T15:15:14.247Z,35
2017-05-19T15:16:23.866Z,35
2017-05-19T15:17:33.796Z,35
2017-05-19T15:18:43.464Z,35
2017-05-19T15:19:53.376Z,35
2017-05-19T15:21:03.001Z,40
2017-05-19T15:22:13.226Z,40
2017-05-19T15:23:23.200Z,40
2017-05-19T15:24:32.534Z,45
2017-05-19T15:25:42.162Z,50
2017-05-19T15:26:52.095Z,50
2017-05-19T15:30:34.476Z,40
2017-05-19T15:31:44.704Z,40
2017-05-19T15:35:26.998Z,35
2017-05-19T15:36:36.615Z,35
2017-05-19T15:37:46.945Z,35
2017-05-19T15:38:57.230Z,35
2017-05-19T15:40:06.918Z,35
2017-05-19T15:41:17.138Z,35
2017-05-19T15:42:27.795Z,35
2017-05-19T15:43:37.418Z,35
2017-05-19T15:44:47.139Z,30
2017-05-19T15:45:57.081Z,25
2017-05-19T15:47:07.227Z,25
2017-05-19T15:48:16.829Z,25
2017-05-19T15:49:27.059Z,25
2017-05-19T15:50:36.974Z,25
2017-05-19T15:51:47.185Z,25
2017-05-19T15:52:57.453Z,20
2017-05-19T15:54:07.380Z,20
2017-05-19T15:55:17.319Z,20
2017-05-19T15:56:27.275Z,20
2017-05-19T15:57:37.206Z,20
2017-05-19T15:58:47.510Z,20
2017-05-19T15:59:57.136Z,15
2017-05-19T16:01:07.062Z,15
2017-05-19T16:02:16.680Z,15
2017-05-19T16:03:26.912Z,15
2017-05-19T16:04:37.128Z,15
2017-05-19T16:05:47.072Z,15
2017-05-19T16:06:57.373Z,15
2017-05-19T16:08:07.294Z,15
2017-05-19T16:09:17.209Z,20
2017-05-19T16:10:26.508Z,15
2017-05-19T16:11:36.115Z,15
2017-05-19T16:12:46.468Z,15
2017-05-19T16:13:55.762Z,20
2017-05-19T16:15:05.740Z,20
2017-05-19T16:16:15.667Z,20
2017-05-19T16:17:24.962Z,20
2017-05-19T16:18:35.219Z,15
2017-05-19T16:19:45.133Z,15
2017-05-19T16:20:55.037Z,15
2017-05-19T16:22:04.333Z,15
2017-05-19T16:23:14.252Z,20
2017-05-19T16:24:23.855Z,15
2017-05-19T16:25:33.170Z,15
2017-05-19T16:26:42.781Z,15
2017-05-19T16:27:52.410Z,20
2017-05-19T16:29:02.029Z,20
2017-05-19T16:30:11.363Z,20
2017-05-19T16:31:21.629Z,20
2017-05-19T16:32:31.541Z,25
2017-05-19T16:33:41.178Z,25
2017-05-19T16:34:50.484Z,25
2017-05-19T16:36:00.404Z,25
2017-05-19T16:37:09.716Z,25
2017-05-19T16:38:19.313Z,25
2017-05-19T16:39:28.925Z,20
2017-05-19T16:40:38.845Z,20
2017-05-19T16:41:48.463Z,20
2017-05-19T16:42:58.089Z,20
2017-05-19T16:44:07.703Z,20
2017-05-19T16:45:17.924Z,20
2017-05-19T16:46:27.534Z,20
2017-05-19T16:47:37.486Z,15
2017-05-19T16:48:47.134Z,15
2017-05-19T16:49:57.113Z,10
2017-05-19T16:51:06.259Z,10
2017-05-19T16:52:15.861Z,10
2017-05-19T16:53:26.099Z,10
2017-05-19T16:57:08.994Z,15